AirNav   Everest Fuels
 
 931 users online  

TA46 Baum Airport
Kaufman, Texas, USA

GOING TO KAUFMAN?


FAA INFORMATION EFFECTIVE 18 JUNE 2020

Location

FAA Identifier: TA46
Lat/Long: 32-33-45.4890N 096-24-03.9420W
32-33.758150N 096-24.065700W
32.5626358,-96.4010950
(estimated)
Elevation: 500 ft. / 152 m (estimated)
Variation: 06E (1985)
From city: 3 miles SW of KAUFMAN, TX
Time zone: UTC -5 (UTC -6 during Standard Time)
Zip code: 75142

Airport Operations

Airport use: Private use. Permission required prior to landing
Activation date: 02/1980
Control tower: no
ARTCC: FORT WORTH CENTER
FSS: FORT WORTH FLIGHT SERVICE STATION
Attendance: CONTINUOUS
Wind indicator: yes
Segmented circle: no
Lights: FOR LIRL RWY 15/33 CALL 214-452-8466.
Beacon: white-green (lighted land airport)
FOR ROTG BCN CALL 214-452-8466.

Airport Communications

WX ASOS at TRL (11 nm NE): 119.275 (972-551-1334)
WX AWOS-3 at HQZ (13 nm NW): 118.175 (972-222-7631)
WX AWOS-3 at LNC (16 nm W): 118.975 (972-227-0471)

Nearby radio navigation aids

VOR radial/distance  VOR name  Freq  Var
CQYr332/24.4CEDAR CREEK VORTAC114.8006E
CVEr122/32.1COWBOY VOR/DME116.2006E
TTTr114/37.2MAVERICK VOR/DME113.1006E

 
NDB name  Hdg/Dist  Freq  Var  ID
TRAVIS207/14.126006EAVZ .- ...- --..
MESQUITE153/16.224803EPQF .--. --.- ..-.
POWELL356/29.934406ECGQ -.-. --. --.-
CORSICANA353/32.139606ECRS -.-. .-. ...
CROSSROADS315/37.521508ECSZ -.-. ... --..

Airport Services

Runway Information

Runway 15/33

Dimensions: 3200 x 80 ft. / 975 x 24 m
Surface: turf
Runway edge lights: low intensity
RUNWAY 15  RUNWAY 33
Traffic pattern: leftleft
Obstructions: none35 ft. pline, marked, 400 ft. from runway

Airport Ownership and Management from official FAA records

Ownership: Privately-owned
Owner: THOMAS J. BAUM
6072 FM 1390
KAUFMAN, TX 75142
Phone 214-452-8466
Manager: THOMAS J. BAUM
6072 FM 1390
KAUFMAN, TX 75142
Phone 214-452-8466

Airport Operational Statistics

Aircraft based on the field: 1
Multi engine airplanes: 1
    

Additional Remarks

FOR CD CTC REGIONAL APCH AT 972-615-2799.

Instrument Procedures

There are no published instrument procedures at TA46.

Some nearby airports with instrument procedures:

KTRL - Terrell Municipal Airport (11 nm NE)
KHQZ - Mesquite Metro Airport (13 nm NW)
KLNC - Lancaster Regional Airport (16 nm W)
F41 - Ennis Municipal Airport (19 nm SW)
F46 - Ralph M Hall/Rockwall Municipal Airport (22 nm N)
 
Loc | Ops | Rwys | IFR | FBO | Links
Com | Nav | Svcs | Stats | Notes

City of Fort Worth
 
Area around TA46 (Baum Airport)
 
Road maps at: MapQuest Bing Google
 
Aerial photo
WARNING: Photo may not be current or correct
Aerial photo of TA46 (Baum Airport)
Do you have a better or more recent aerial photo of Baum Airport that you would like to share? If so, please send us your photo.

 
Sectional chart

 
Airport distance calculator
Flying to Baum Airport? Find the distance to fly.

From to TA46

Sunrise and sunset
Times for 05-Jul-2020
 Local
(UTC-5)
 Zulu
(UTC)
Morning civil twilight05:5710:57
Sunrise06:2511:25
Sunset20:3601:36
Evening civil twilight21:0402:04

Current date and time
Zulu (UTC)  05-Jul-2020 14:38:26
Local (UTC-5)  05-Jul-2020 09:38:26
 
METAR
KTRL 
11nm NE 
051353Z AUTO 00000KT 9SM FEW085 SCT110 27/23 A2989 RMK AO2 SLP113 T02720228
KHQZ 
13nm NW 
051350Z 00000KT 7SM BKN080 27/23 A2989
KLNC 
16nm W 
051415Z AUTO 20006KT 5SM RA SCT028 BKN065 OVC100 25/23 A2989 RMK AO2 T02540230
KF46 
22nm N 
051415Z AUTO 12004KT 10SM SCT120 28/23 A2989 RMK AO2 T02820231
TAF
KDAL 
28nm NW 
051120Z 0512/0612 10006KT P6SM SCT120 FM051500 02005KT P6SM SCT050 BKN120 FM061000 36004KT P6SM BKN060
NOTAMs
Click for the latest NOTAMs
NOTAMs are issued by the DoD/FAA and will open in a separate window not controlled by AirNav.

 

 
 

Would you like to see your business listed on this page?

 If your business provides an interesting product or service to pilots, flight crews, aircraft, or users of the Baum Airport, you should consider listing it here.  To start the listing process, click on the button below
 
Add a business
 

Other Pages about Baum Airport

Update a link
 
Copyright © AirNav, LLC. All rights reserved. Privacy Policy  Contact